Time;durP1;ratioP1;P1;durP2;ratioP2;P2;SDS_P1;SDS_P2;PMS_P1;PMS_P2;Temp;Humidity;BMP_temperature;BMP_pressure;BME280_temperature;BME280_humidity;BME280_pressure;Samples;Min_cycle;Max_cycle;Signal;HPM_P1;HPM_P2
2022/03/31 00:00:17;;;;;;;20.37;12.40;;;12.80;55.10;;;;;;2337252;53;20956;-64
2022/03/31 00:02:43;;;;;;;20.00;11.85;;;12.80;55.10;;;;;;2327167;53;21275;-66
2022/03/31 00:05:10;;;;;;;21.17;13.20;;;12.80;55.10;;;;;;2341289;53;20948;-65
2022/03/31 00:07:47;;;;;;;20.10;12.73;;;12.80;55.10;;;;;;2349122;53;20952;-65
2022/03/31 00:10:13;;;;;;;22.67;13.85;;;12.80;55.30;;;;;;2323371;53;20939;-66
2022/03/31 00:12:39;;;;;;;23.17;14.07;;;12.70;55.00;;;;;;2347987;53;21515;-64
2022/03/31 00:15:07;;;;;;;21.37;12.77;;;12.70;55.00;;;;;;2323787;53;21306;-66
2022/03/31 00:17:33;;;;;;;25.60;15.68;;;12.70;55.10;;;;;;2319760;53;21865;-64
2022/03/31 00:19:59;;;;;;;22.15;13.82;;;12.70;55.00;;;;;;2328359;53;21424;-65
2022/03/31 00:22:28;;;;;;;24.73;13.52;;;12.70;55.10;;;;;;2346441;53;21017;-64
2022/03/31 00:24:54;;;;;;;19.60;12.75;;;12.70;55.10;;;;;;2327099;53;20961;-65
2022/03/31 00:27:21;;;;;;;21.12;12.50;;;12.70;55.10;;;;;;2337172;53;20933;-64
2022/03/31 00:29:47;;;;;;;19.27;12.43;;;12.70;55.20;;;;;;2330013;53;20962;-64
2022/03/31 00:32:14;;;;;;;23.77;13.52;;;12.70;55.20;;;;;;2339354;53;21412;-63
2022/03/31 00:34:40;;;;;;;25.58;15.85;;;12.70;55.30;;;;;;2342585;53;21045;-64
2022/03/31 00:37:07;;;;;;;26.23;16.23;;;12.70;55.30;;;;;;2347478;53;20988;-65
2022/03/31 00:39:34;;;;;;;28.87;17.77;;;12.70;55.30;;;;;;2341865;53;20974;-64
2022/03/31 00:42:02;;;;;;;25.77;16.00;;;12.60;55.30;;;;;;2330022;53;22072;-63
2022/03/31 00:44:29;;;;;;;26.20;16.05;;;12.60;55.30;;;;;;2567816;53;21009;-64
2022/03/31 00:46:55;;;;;;;25.73;15.85;;;12.60;55.30;;;;;;2338650;53;21075;-65
2022/03/31 00:49:22;;;;;;;25.27;15.48;;;12.60;55.40;;;;;;2320560;53;20951;-65
2022/03/31 00:51:49;;;;;;;24.02;15.23;;;12.60;55.40;;;;;;2344102;53;21502;-65
2022/03/31 00:54:16;;;;;;;20.75;12.68;;;12.60;55.50;;;;;;2341793;53;20965;-63
2022/03/31 00:56:43;;;;;;;22.27;14.20;;;12.60;55.50;;;;;;2338642;53;21540;-64
2022/03/31 00:59:10;;;;;;;24.95;14.87;;;12.60;55.50;;;;;;2335531;53;21497;-63
2022/03/31 01:01:38;;;;;;;27.48;15.73;;;12.60;55.50;;;;;;2345578;53;20975;-64
2022/03/31 01:04:08;;;;;;;30.40;15.88;;;12.60;55.60;;;;;;2329093;53;20974;-64
2022/03/31 01:06:35;;;;;;;26.02;16.87;;;12.60;55.50;;;;;;2320155;53;20955;-65
2022/03/31 01:09:04;;;;;;;24.73;15.00;;;12.60;55.50;;;;;;2336174;53;20960;-66
2022/03/31 01:11:31;;;;;;;24.35;14.85;;;12.60;55.60;;;;;;2329753;53;20988;-64
2022/03/31 01:13:58;;;;;;;27.08;17.00;;;12.60;55.50;;;;;;2342313;53;20941;-66
2022/03/31 01:16:25;;;;;;;27.62;17.60;;;12.60;55.50;;;;;;2350440;53;21072;-65
2022/03/31 01:18:52;;;;;;;27.30;17.15;;;12.50;55.50;;;;;;2349059;53;21076;-64
2022/03/31 01:21:18;;;;;;;27.02;16.05;;;12.50;55.50;;;;;;2330544;53;20954;-64
2022/03/31 01:23:45;;;;;;;28.77;18.35;;;12.50;55.60;;;;;;2559041;52;21003;-64
2022/03/31 01:26:12;;;;;;;26.20;15.68;;;12.50;55.70;;;;;;2334056;53;21440;-64
2022/03/31 01:28:44;;;;;;;27.13;16.20;;;12.50;55.70;;;;;;2421473;52;21015;-66
2022/03/31 01:31:13;;;;;;;25.80;15.93;;;12.50;55.90;;;;;;2344067;53;20996;-65
2022/03/31 01:33:40;;;;;;;27.42;15.90;;;12.50;55.70;;;;;;2347622;53;21055;-65
2022/03/31 01:36:07;;;;;;;23.33;14.13;;;12.50;55.70;;;;;;2352874;53;21028;-64
2022/03/31 01:38:34;;;;;;;24.02;14.38;;;12.50;55.70;;;;;;2355073;53;20975;-63
2022/03/31 01:41:01;;;;;;;25.25;14.63;;;12.50;55.80;;;;;;2326538;53;20953;-64
2022/03/31 01:43:28;;;;;;;25.05;15.95;;;12.50;55.80;;;;;;2350793;53;20924;-66
2022/03/31 01:45:54;;;;;;;23.98;14.85;;;12.50;55.80;;;;;;2519594;52;21047;-64
2022/03/31 01:48:21;;;;;;;24.95;14.50;;;12.60;55.90;;;;;;2419163;52;20999;-65
2022/03/31 01:50:47;;;;;;;24.15;14.32;;;12.60;55.90;;;;;;2321618;53;20992;-65
2022/03/31 01:53:18;;;;;;;23.58;14.55;;;12.60;55.80;;;;;;2349429;53;20999;-64
2022/03/31 01:55:45;;;;;;;27.87;16.37;;;12.60;55.80;;;;;;2350456;53;20948;-65
2022/03/31 01:58:11;;;;;;;24.90;14.35;;;12.60;55.80;;;;;;2341908;53;20991;-64
2022/03/31 02:00:38;;;;;;;23.48;14.93;;;12.60;55.90;;;;;;2556430;52;21471;-63
2022/03/31 02:03:04;;;;;;;26.35;15.10;;;12.60;55.80;;;;;;2473543;52;20946;-65
2022/03/31 02:05:31;;;;;;;23.75;13.90;;;12.60;55.90;;;;;;2325968;53;21117;-65
2022/03/31 02:08:00;;;;;;;21.55;13.27;;;12.60;55.90;;;;;;2532994;52;20964;-63
2022/03/31 02:10:28;;;;;;;22.67;13.62;;;12.60;55.90;;;;;;2587600;53;21054;-64
2022/03/31 02:12:54;;;;;;;25.48;15.40;;;12.60;55.90;;;;;;2349256;53;22009;-65
2022/03/31 02:15:24;;;;;;;27.35;16.90;;;12.70;55.90;;;;;;2350231;53;20928;-64
2022/03/31 02:17:52;;;;;;;28.83;17.73;;;12.70;55.90;;;;;;2351003;53;20932;-65
2022/03/31 02:20:18;;;;;;;28.27;17.62;;;12.70;56.00;;;;;;2330469;53;20941;-65
2022/03/31 02:22:45;;;;;;;30.08;18.30;;;12.70;55.90;;;;;;2565335;53;21009;-64
2022/03/31 02:25:11;;;;;;;30.55;17.80;;;12.70;55.90;;;;;;2351233;53;20989;-64
2022/03/31 02:27:37;;;;;;;29.58;17.37;;;12.70;55.90;;;;;;2338874;53;21711;-63
2022/03/31 02:30:05;;;;;;;24.02;14.80;;;12.60;55.90;;;;;;2332231;53;20948;-66
2022/03/31 02:32:31;;;;;;;24.15;14.85;;;12.60;55.90;;;;;;2347883;53;20928;-64
2022/03/31 02:34:57;;;;;;;27.10;16.02;;;12.60;55.90;;;;;;2347305;53;21610;-64
2022/03/31 02:37:23;;;;;;;25.70;15.63;;;12.70;56.00;;;;;;2330820;53;20998;-64
2022/03/31 02:39:51;;;;;;;24.77;14.43;;;12.60;55.90;;;;;;2337591;53;20954;-65
2022/03/31 02:42:17;;;;;;;24.50;14.75;;;12.70;56.00;;;;;;2340409;53;20949;-66
2022/03/31 02:44:44;;;;;;;24.30;15.07;;;12.70;56.00;;;;;;2559333;52;21860;-64
2022/03/31 02:47:10;;;;;;;24.58;15.15;;;12.60;55.90;;;;;;2346810;53;20992;-65
2022/03/31 02:49:37;;;;;;;23.42;14.40;;;12.70;56.00;;;;;;2334140;53;20946;-65
2022/03/31 02:52:04;;;;;;;24.77;14.63;;;12.70;56.00;;;;;;2333582;53;21099;-64
2022/03/31 02:57:16;;;;;;;20.30;12.50;;;12.70;56.00;;;;;;2571083;53;21048;-64
2022/03/31 02:59:42;;;;;;;19.70;12.80;;;12.70;55.90;;;;;;2338547;53;20957;-64
2022/03/31 03:02:08;;;;;;;20.98;13.32;;;12.70;56.00;;;;;;2346854;53;21000;-65
2022/03/31 03:04:36;;;;;;;27.23;16.00;;;12.70;55.90;;;;;;2344607;53;21185;-65
2022/03/31 03:07:03;;;;;;;24.67;14.98;;;12.70;55.90;;;;;;2349232;53;21044;-65
2022/03/31 03:09:29;;;;;;;27.45;16.08;;;12.70;55.90;;;;;;2346363;53;21061;-64
2022/03/31 03:11:55;;;;;;;28.58;16.42;;;12.70;55.90;;;;;;2342266;53;20926;-64
2022/03/31 03:14:22;;;;;;;26.02;15.35;;;12.70;55.90;;;;;;2334658;53;20975;-63
2022/03/31 03:16:48;;;;;;;26.75;15.52;;;12.70;55.90;;;;;;2372773;53;21713;-64
2022/03/31 03:19:15;;;;;;;25.73;14.68;;;12.70;55.90;;;;;;2345982;53;21004;-64
2022/03/31 03:21:41;;;;;;;24.63;14.27;;;12.70;56.00;;;;;;2350646;53;21832;-64
2022/03/31 03:24:07;;;;;;;25.45;15.77;;;12.70;55.90;;;;;;2327300;53;20941;-64
2022/03/31 03:26:33;;;;;;;23.05;13.50;;;12.70;55.90;;;;;;2346866;53;20980;-65
2022/03/31 03:29:00;;;;;;;25.80;15.27;;;12.70;56.50;;;;;;2342220;53;21017;-64
2022/03/31 03:31:26;;;;;;;27.83;15.10;;;12.70;55.90;;;;;;2439386;53;21449;-63
2022/03/31 03:33:53;;;;;;;24.77;14.40;;;12.70;56.00;;;;;;2345916;53;20961;-65
2022/03/31 03:36:19;;;;;;;24.87;14.98;;;12.70;56.00;;;;;;2345605;53;21052;-64
2022/03/31 03:38:46;;;;;;;23.42;14.15;;;12.70;56.00;;;;;;2343296;53;20948;-65
2022/03/31 03:41:13;;;;;;;23.90;14.85;;;12.60;56.00;;;;;;2413629;52;20989;-65
2022/03/31 03:43:39;;;;;;;22.20;13.70;;;12.70;56.00;;;;;;2581380;53;20952;-64
2022/03/31 03:46:06;;;;;;;24.37;14.43;;;12.60;56.00;;;;;;2349577;53;21735;-63
2022/03/31 03:48:32;;;;;;;23.02;13.62;;;12.60;56.00;;;;;;2347090;53;21016;-64
2022/03/31 03:50:59;;;;;;;24.30;14.00;;;12.60;56.00;;;;;;2346294;53;21044;-64
2022/03/31 03:53:25;;;;;;;24.85;14.75;;;12.70;56.00;;;;;;2336088;53;21040;-65
2022/03/31 03:55:51;;;;;;;28.60;16.00;;;12.60;55.90;;;;;;2346402;53;20933;-65
2022/03/31 03:58:18;;;;;;;24.00;14.45;;;12.60;56.00;;;;;;2581920;52;21953;-64
2022/03/31 04:00:44;;;;;;;28.75;16.85;;;12.60;56.00;;;;;;2557025;52;20961;-64
2022/03/31 04:03:10;;;;;;;22.23;13.68;;;12.70;56.10;;;;;;2349085;53;20905;-64
2022/03/31 04:05:38;;;;;;;23.38;14.27;;;12.70;56.20;;;;;;2341656;53;21020;-66
2022/03/31 04:08:05;;;;;;;27.83;16.77;;;12.70;56.20;;;;;;2344740;53;21008;-63
2022/03/31 04:10:34;;;;;;;24.90;14.32;;;12.70;56.20;;;;;;2345398;53;20985;-65
2022/03/31 04:13:02;;;;;;;24.35;14.77;;;12.70;56.20;;;;;;2340298;53;21484;-65
2022/03/31 04:15:28;;;;;;;26.77;16.55;;;12.70;56.10;;;;;;2345746;53;20961;-63
2022/03/31 04:17:54;;;;;;;29.77;17.10;;;12.70;56.10;;;;;;2335612;53;20940;-64
2022/03/31 04:20:21;;;;;;;27.95;16.67;;;12.70;56.20;;;;;;2343355;53;21037;-64
2022/03/31 04:22:47;;;;;;;25.25;15.80;;;12.70;56.20;;;;;;2346748;53;21000;-66
2022/03/31 04:25:14;;;;;;;23.48;13.73;;;12.70;56.10;;;;;;2320170;53;21122;-64
2022/03/31 04:27:40;;;;;;;24.12;14.87;;;12.70;56.00;;;;;;2563958;53;20992;-64
2022/03/31 04:30:08;;;;;;;25.25;15.15;;;12.80;56.10;;;;;;2304231;53;20943;-64
2022/03/31 04:32:34;;;;;;;24.12;14.38;;;12.70;55.90;;;;;;2359201;53;20939;-63
2022/03/31 04:35:01;;;;;;;23.05;13.05;;;12.70;55.80;;;;;;2321040;53;21373;-64
2022/03/31 04:37:27;;;;;;;23.98;14.15;;;12.70;55.80;;;;;;2320515;53;20938;-65
2022/03/31 04:39:54;;;;;;;26.37;14.68;;;12.70;55.90;;;;;;2321138;54;21063;-64
2022/03/31 04:42:20;;;;;;;25.17;14.60;;;12.70;55.80;;;;;;2564257;53;22005;-64
2022/03/31 04:44:47;;;;;;;28.70;16.33;;;12.60;55.70;;;;;;2323877;53;22015;-64
2022/03/31 04:47:13;;;;;;;27.65;15.85;;;12.60;55.80;;;;;;2325570;53;21027;-65
2022/03/31 04:49:40;;;;;;;31.25;17.20;;;12.60;55.90;;;;;;2320729;53;22036;-65
2022/03/31 04:52:06;;;;;;;24.42;14.73;;;12.60;56.00;;;;;;2324792;53;22299;-65
2022/03/31 04:54:33;;;;;;;27.13;15.25;;;12.60;56.00;;;;;;2320605;53;20937;-65
2022/03/31 04:56:59;;;;;;;25.55;15.48;;;12.60;56.00;;;;;;2321755;53;21114;-65
2022/03/31 04:59:25;;;;;;;23.60;14.80;;;12.60;56.00;;;;;;2385127;53;21021;-64
2022/03/31 05:01:52;;;;;;;24.60;13.90;;;12.60;56.00;;;;;;2314233;53;20999;-66
2022/03/31 05:04:30;;;;;;;23.55;14.25;;;12.60;56.00;;;;;;2321194;54;21044;-64
2022/03/31 05:06:56;;;;;;;23.55;13.18;;;12.60;56.30;;;;;;2322011;54;21015;-65
2022/03/31 05:09:23;;;;;;;21.42;12.77;;;12.60;56.10;;;;;;2321627;54;20936;-64
2022/03/31 05:11:49;;;;;;;24.23;14.45;;;12.60;56.00;;;;;;2324370;53;21526;-65
2022/03/31 05:14:15;;;;;;;22.75;13.02;;;12.70;56.10;;;;;;2321104;53;20933;-64
2022/03/31 05:16:41;;;;;;;23.30;14.25;;;12.60;56.10;;;;;;2564327;53;21500;-64
2022/03/31 05:19:08;;;;;;;22.62;12.90;;;12.70;56.20;;;;;;2415498;53;21047;-66
2022/03/31 05:21:34;;;;;;;25.58;14.90;;;12.60;56.10;;;;;;2321250;54;21052;-64
2022/03/31 05:24:01;;;;;;;24.05;14.00;;;12.70;56.20;;;;;;2321906;54;22402;-65
2022/03/31 05:26:27;;;;;;;25.67;15.25;;;12.60;56.10;;;;;;2320938;54;20961;-65
2022/03/31 05:28:53;;;;;;;26.42;15.93;;;12.70;56.10;;;;;;2321219;54;20968;-65
2022/03/31 05:31:20;;;;;;;24.27;14.48;;;12.70;56.00;;;;;;2321066;54;20948;-63
2022/03/31 05:33:46;;;;;;;25.45;15.10;;;12.60;55.90;;;;;;2321740;54;20941;-64
2022/03/31 05:36:12;;;;;;;24.85;14.43;;;12.60;55.90;;;;;;2321483;54;21016;-64
2022/03/31 05:38:38;;;;;;;26.58;13.30;;;12.60;55.80;;;;;;2321402;53;20940;-65
2022/03/31 05:41:05;;;;;;;25.52;14.32;;;12.60;55.90;;;;;;2324361;53;20957;-66
2022/03/31 05:43:31;;;;;;;25.65;14.27;;;12.60;55.90;;;;;;2321363;53;20930;-65
2022/03/31 05:45:57;;;;;;;21.35;13.18;;;12.60;55.90;;;;;;2321096;53;20929;-64
2022/03/31 05:48:24;;;;;;;21.37;13.02;;;12.50;56.00;;;;;;2346261;53;21089;-64
2022/03/31 05:50:50;;;;;;;25.55;14.68;;;12.50;56.10;;;;;;2321392;53;20933;-64
2022/03/31 05:53:16;;;;;;;19.75;11.70;;;12.50;56.10;;;;;;2321457;54;21083;-65
2022/03/31 05:55:45;;;;;;;23.38;12.65;;;12.50;56.20;;;;;;2321216;54;20984;-65
2022/03/31 05:58:11;;;;;;;21.73;13.55;;;12.60;56.30;;;;;;2326359;53;21078;-66
2022/03/31 06:00:37;;;;;;;22.20;13.30;;;12.60;56.20;;;;;;2321585;54;20988;-63
2022/03/31 06:03:04;;;;;;;22.52;13.18;;;12.60;56.20;;;;;;2321801;54;20936;-64
2022/03/31 06:05:31;;;;;;;20.08;12.70;;;12.60;56.20;;;;;;2321225;54;21511;-66
2022/03/31 06:07:57;;;;;;;20.92;12.32;;;12.60;56.20;;;;;;2321417;54;21043;-65
2022/03/31 06:10:23;;;;;;;22.83;13.43;;;12.60;56.20;;;;;;2321581;54;20955;-65
2022/03/31 06:12:50;;;;;;;23.55;13.38;;;12.60;56.10;;;;;;2332414;53;21107;-64
2022/03/31 06:15:17;;;;;;;22.33;12.95;;;12.60;56.10;;;;;;2324015;53;21013;-66
2022/03/31 06:17:44;;;;;;;20.73;13.07;;;12.60;56.10;;;;;;2320983;54;21131;-65
2022/03/31 06:20:10;;;;;;;24.15;13.68;;;12.60;56.10;;;;;;2321327;54;21308;-65
2022/03/31 06:22:37;;;;;;;25.30;14.50;;;12.60;56.10;;;;;;2321035;54;21505;-65
2022/03/31 06:25:06;;;;;;;25.58;15.07;;;12.60;56.20;;;;;;2321207;54;20976;-66
2022/03/31 06:27:33;;;;;;;19.55;12.25;;;12.60;56.30;;;;;;2320698;53;20979;-64
2022/03/31 06:30:00;;;;;;;24.87;14.52;;;12.60;56.20;;;;;;2323271;53;21056;-63
2022/03/31 06:32:26;;;;;;;20.30;12.45;;;12.60;56.20;;;;;;2320713;54;21077;-65
2022/03/31 06:35:01;;;;;;;24.95;14.77;;;12.60;56.30;;;;;;2321077;53;20958;-65
2022/03/31 06:37:27;;;;;;;27.20;15.77;;;12.70;56.60;;;;;;2321236;54;21563;-65
2022/03/31 06:39:54;;;;;;;25.88;15.32;;;12.70;56.40;;;;;;2348535;53;20941;-64
2022/03/31 06:42:20;;;;;;;23.77;13.80;;;12.70;56.50;;;;;;2452075;53;21021;-66
2022/03/31 06:44:47;;;;;;;26.73;15.40;;;12.70;56.40;;;;;;2304099;53;21107;-64
2022/03/31 06:47:14;;;;;;;27.17;15.00;;;12.70;56.40;;;;;;2472986;53;20948;-64
2022/03/31 06:49:40;;;;;;;23.87;13.62;;;12.70;56.30;;;;;;2345652;53;20928;-65
2022/03/31 06:52:06;;;;;;;23.02;14.55;;;12.80;56.30;;;;;;2321033;54;21993;-65
2022/03/31 06:54:33;;;;;;;27.52;15.75;;;12.80;56.30;;;;;;2321564;54;21071;-64
2022/03/31 06:56:59;;;;;;;24.63;14.07;;;12.80;56.20;;;;;;2321270;54;20975;-64
2022/03/31 06:59:25;;;;;;;27.65;14.77;;;12.80;56.20;;;;;;2321485;54;20944;-65
2022/03/31 07:01:51;;;;;;;24.73;14.85;;;12.80;56.20;;;;;;2511547;53;20932;-66
2022/03/31 07:04:18;;;;;;;27.05;13.80;;;12.80;56.20;;;;;;2321534;54;20929;-66
2022/03/31 07:06:44;;;;;;;28.80;16.45;;;12.70;56.20;;;;;;2320419;53;20933;-66
2022/03/31 07:09:10;;;;;;;24.85;13.93;;;12.80;56.20;;;;;;2321371;54;20972;-65
2022/03/31 07:11:37;;;;;;;25.02;14.75;;;12.80;56.20;;;;;;2320493;54;21072;-64
2022/03/31 07:14:05;;;;;;;27.27;15.55;;;12.80;56.20;;;;;;2457731;53;20948;-64
2022/03/31 07:16:34;;;;;;;26.08;15.07;;;12.70;56.00;;;;;;2387349;53;21012;-65
2022/03/31 07:19:01;;;;;;;26.62;14.55;;;12.70;56.00;;;;;;2321436;54;20932;-65
2022/03/31 07:21:30;;;;;;;29.73;16.55;;;12.70;56.00;;;;;;2324992;53;20976;-66
2022/03/31 07:23:57;;;;;;;26.30;14.68;;;12.70;56.00;;;;;;2352111;53;20949;-64
2022/03/31 07:26:23;;;;;;;28.50;14.87;;;12.70;56.00;;;;;;2320960;54;21319;-65
2022/03/31 07:28:49;;;;;;;22.90;13.57;;;12.70;56.10;;;;;;2420317;53;20916;-64
2022/03/31 07:31:15;;;;;;;25.08;14.45;;;12.70;56.20;;;;;;2425063;53;20936;-65
2022/03/31 07:33:42;;;;;;;22.87;13.45;;;12.70;56.30;;;;;;2321677;54;20982;-64
2022/03/31 07:36:09;;;;;;;24.25;13.45;;;12.80;56.40;;;;;;2321440;54;20947;-66
2022/03/31 07:38:35;;;;;;;23.17;13.55;;;12.70;56.30;;;;;;2346543;53;20965;-65
2022/03/31 07:41:01;;;;;;;26.30;14.60;;;12.70;56.40;;;;;;2347649;53;21051;-66
2022/03/31 07:43:43;;;;;;;23.87;13.95;;;12.70;56.40;;;;;;2324159;53;21048;-65
2022/03/31 07:46:10;;;;;;;27.50;15.55;;;12.80;56.70;;;;;;2321293;53;21315;-66
2022/03/31 07:48:36;;;;;;;24.87;14.07;;;12.80;56.30;;;;;;2324562;53;20969;-64
2022/03/31 07:51:02;;;;;;;24.92;14.32;;;12.90;56.40;;;;;;2321836;54;20925;-63
2022/03/31 07:53:33;;;;;;;26.85;15.80;;;12.90;56.40;;;;;;2323144;53;20944;-67
2022/03/31 07:56:00;;;;;;;25.23;14.02;;;12.90;56.40;;;;;;2323686;54;20980;-66
2022/03/31 07:58:26;;;;;;;26.52;14.87;;;12.90;56.50;;;;;;2326912;53;20961;-64
2022/03/31 08:00:53;;;;;;;27.52;15.43;;;13.00;56.70;;;;;;2306359;53;21480;-66
2022/03/31 08:03:19;;;;;;;32.65;18.37;;;13.00;56.80;;;;;;2321789;54;20968;-65
2022/03/31 08:05:46;;;;;;;26.95;15.75;;;13.10;56.80;;;;;;2324432;53;20944;-64
2022/03/31 08:08:12;;;;;;;26.90;15.68;;;13.10;56.70;;;;;;2346604;53;20940;-65
2022/03/31 08:10:39;;;;;;;29.75;17.42;;;13.10;56.70;;;;;;2321333;54;20952;-65
2022/03/31 08:13:06;;;;;;;26.35;16.52;;;13.20;56.80;;;;;;2324790;53;20977;-66
2022/03/31 08:15:32;;;;;;;26.90;16.15;;;13.20;56.60;;;;;;2323765;53;20937;-64
2022/03/31 08:17:58;;;;;;;29.75;16.75;;;13.30;56.60;;;;;;2321321;53;20972;-64
2022/03/31 08:20:25;;;;;;;28.95;16.62;;;13.30;56.30;;;;;;2325018;53;20968;-64
2022/03/31 08:22:51;;;;;;;28.35;16.42;;;13.30;56.20;;;;;;2321146;53;20944;-66
2022/03/31 08:25:17;;;;;;;32.65;16.73;;;13.30;56.10;;;;;;2321572;54;21000;-66
2022/03/31 08:27:44;;;;;;;30.25;16.73;;;13.30;56.10;;;;;;2321423;54;21295;-66
2022/03/31 08:30:13;;;;;;;28.70;16.48;;;13.30;56.10;;;;;;2321372;54;21087;-65
2022/03/31 08:32:42;;;;;;;28.80;16.85;;;13.30;56.20;;;;;;2324097;53;21068;-64
2022/03/31 08:35:08;;;;;;;28.52;15.50;;;13.40;56.10;;;;;;2321530;54;21047;-64
2022/03/31 08:37:35;;;;;;;29.83;16.87;;;13.40;56.10;;;;;;2321565;54;20948;-65
2022/03/31 08:40:01;;;;;;;29.58;17.65;;;13.40;56.00;;;;;;2321582;54;21300;-65
2022/03/31 08:42:27;;;;;;;29.25;17.25;;;13.30;56.00;;;;;;2320870;54;21016;-66
2022/03/31 08:44:54;;;;;;;28.55;17.02;;;13.30;56.00;;;;;;2321624;54;21213;-64
2022/03/31 08:47:20;;;;;;;28.08;16.70;;;13.30;56.10;;;;;;2320878;54;21335;-65
2022/03/31 08:49:56;;;;;;;31.95;17.70;;;13.30;56.10;;;;;;2321053;54;21015;-65
2022/03/31 08:52:23;;;;;;;29.65;16.55;;;13.30;56.10;;;;;;2321134;54;20944;-66
2022/03/31 08:54:49;;;;;;;25.60;15.65;;;13.40;56.20;;;;;;2321050;54;21095;-64
2022/03/31 08:57:17;;;;;;;27.85;16.62;;;13.40;56.30;;;;;;2321350;54;20975;-65
2022/03/31 08:59:58;;;;;;;29.15;17.02;;;13.40;56.50;;;;;;2321301;54;20964;-65
2022/03/31 09:02:25;;;;;;;26.50;16.37;;;13.50;56.50;;;;;;2321668;53;22082;-64
2022/03/31 09:05:05;;;;;;;27.92;16.58;;;13.50;56.40;;;;;;2319790;53;22187;-68
2022/03/31 09:07:31;;;;;;;27.83;16.23;;;13.50;56.40;;;;;;2562073;53;20948;-68
2022/03/31 09:09:58;;;;;;;27.48;16.85;;;13.50;56.10;;;;;;2321485;54;21083;-69
2022/03/31 09:12:26;;;;;;;25.95;15.80;;;13.50;56.10;;;;;;2568436;53;22049;-70
2022/03/31 09:15:07;;;;;;;26.80;15.48;;;13.50;56.00;;;;;;2324526;54;21303;-70
2022/03/31 09:17:35;;;;;;;24.63;15.18;;;13.60;56.20;;;;;;2335627;53;21041;-69
2022/03/31 09:20:01;;;;;;;23.35;14.13;;;13.50;55.80;;;;;;2555371;53;20941;-68
2022/03/31 09:22:27;;;;;;;18.87;11.70;;;13.50;55.80;;;;;;2328136;53;20945;-68
2022/03/31 09:25:01;;;;;;;17.77;11.23;;;13.50;55.80;;;;;;2326377;53;21344;-70
2022/03/31 09:27:27;;;;;;;21.15;12.60;;;13.50;55.90;;;;;;2326070;53;20945;-70
2022/03/31 09:30:04;;;;;;;19.12;11.57;;;13.40;56.20;;;;;;2331066;53;20941;-70
2022/03/31 09:32:30;;;;;;;16.27;10.55;;;13.40;55.70;;;;;;2324523;54;21432;-69
2022/03/31 09:35:04;;;;;;;19.23;11.35;;;13.30;55.50;;;;;;2324189;54;20937;-69
2022/03/31 09:37:32;;;;;;;16.67;10.55;;;13.30;55.60;;;;;;2324261;54;20924;-70
2022/03/31 09:39:59;;;;;;;17.27;10.32;;;13.20;55.40;;;;;;2324558;54;21063;-69
2022/03/31 09:42:25;;;;;;;14.57;9.48;;;13.20;55.40;;;;;;2324375;54;21019;-68
2022/03/31 09:44:58;;;;;;;13.05;7.97;;;13.20;55.50;;;;;;2324488;54;21115;-69
2022/03/31 09:47:26;;;;;;;14.55;9.48;;;13.10;55.70;;;;;;2324910;54;22015;-70
2022/03/31 09:49:56;;;;;;;14.77;8.98;;;13.00;55.40;;;;;;2330736;53;21124;-68
2022/03/31 09:52:22;;;;;;;13.82;8.32;;;13.00;55.60;;;;;;2334486;53;21007;-69
2022/03/31 09:54:48;;;;;;;15.98;9.35;;;12.90;55.50;;;;;;2324492;54;21998;-70
2022/03/31 09:57:16;;;;;;;14.10;8.13;;;12.90;55.50;;;;;;2567329;53;20932;-67
2022/03/31 09:59:44;;;;;;;15.63;8.48;;;12.90;55.60;;;;;;2323077;53;22237;-69
2022/03/31 10:02:10;;;;;;;16.95;9.18;;;12.80;55.60;;;;;;2568077;53;20992;-68
2022/03/31 10:04:37;;;;;;;15.73;9.25;;;12.80;55.60;;;;;;2324505;54;21047;-68
2022/03/31 10:07:04;;;;;;;15.38;8.18;;;12.80;55.60;;;;;;2504439;53;21000;-68
2022/03/31 10:09:32;;;;;;;20.55;9.13;;;12.80;55.80;;;;;;2324655;54;20944;-67
2022/03/31 10:13:01;;;;;;;12.70;7.43;;;12.80;56.00;;;;;;2323080;53;21536;-70
2022/03/31 10:15:33;;;;;;;13.15;7.18;;;12.80;56.10;;;;;;2324045;54;20933;-67
2022/03/31 10:18:00;;;;;;;14.77;8.23;;;12.80;56.40;;;;;;2324908;53;21024;-67
2022/03/31 10:20:27;;;;;;;17.45;9.75;;;12.80;56.10;;;;;;2324519;54;20953;-67
2022/03/31 10:25:47;;;;;;;21.35;8.82;;;12.80;56.10;;;;;;2324600;54;21504;-70
2022/03/31 10:28:15;;;;;;;13.62;8.07;;;12.80;56.00;;;;;;2328250;53;20948;-68
2022/03/31 10:31:14;;;;;;;17.58;10.07;;;12.80;56.10;;;;;;2328671;53;20960;-67
2022/03/31 10:33:44;;;;;;;13.73;7.93;;;12.80;56.20;;;;;;2332185;53;20980;-69
2022/03/31 10:36:12;;;;;;;14.07;8.63;;;12.80;55.90;;;;;;2335457;52;20968;-69
2022/03/31 10:39:07;;;;;;;12.45;7.43;;;12.70;55.80;;;;;;2321133;53;22059;-68
2022/03/31 10:41:36;;;;;;;13.70;8.40;;;12.70;56.30;;;;;;2324019;54;20945;-69
2022/03/31 10:44:24;;;;;;;13.82;8.35;;;12.70;56.00;;;;;;2325379;53;20987;-69
2022/03/31 10:47:51;;;;;;;14.68;8.55;;;12.60;56.00;;;;;;2324148;53;20937;-70
2022/03/31 10:50:25;;;;;;;10.57;6.80;;;12.70;57.10;;;;;;2330022;53;20924;-70
2022/03/31 10:53:00;;;;;;;12.85;7.80;;;12.60;56.30;;;;;;2324477;54;21569;-68
2022/03/31 10:55:40;;;;;;;13.88;8.55;;;12.70;56.80;;;;;;2324114;54;21015;-68
2022/03/31 10:58:18;;;;;;;12.07;8.25;;;12.70;56.90;;;;;;2325903;54;21958;-68
2022/03/31 11:00:45;;;;;;;13.90;8.68;;;12.70;56.70;;;;;;2568379;53;21974;-68
2022/03/31 11:03:16;;;;;;;15.18;8.15;;;12.70;56.60;;;;;;2323981;54;20936;-68
2022/03/31 11:05:43;;;;;;;12.75;7.40;;;12.70;56.60;;;;;;2333160;53;21424;-69
2022/03/31 11:08:15;;;;;;;12.48;7.80;;;12.80;56.50;;;;;;2405956;52;20940;-70
2022/03/31 11:10:42;;;;;;;13.07;8.63;;;12.80;56.50;;;;;;2568457;53;20948;-69
2022/03/31 11:13:08;;;;;;;11.68;7.75;;;12.80;56.50;;;;;;2324321;54;21275;-69
2022/03/31 11:15:35;;;;;;;12.20;8.00;;;12.80;56.40;;;;;;2324560;54;21047;-68
2022/03/31 11:18:03;;;;;;;12.30;7.72;;;12.80;56.50;;;;;;2309171;54;21124;-70
2022/03/31 11:20:29;;;;;;;12.93;7.47;;;12.80;57.10;;;;;;2324895;53;20952;-68
2022/03/31 11:23:00;;;;;;;14.15;8.10;;;12.80;56.40;;;;;;2323900;54;20965;-70
2022/03/31 11:25:27;;;;;;;13.20;8.13;;;12.70;56.40;;;;;;2323822;53;21465;-68
2022/03/31 11:27:53;;;;;;;13.73;8.70;;;12.70;56.30;;;;;;2324475;54;21453;-68
2022/03/31 11:30:20;;;;;;;14.23;8.25;;;12.80;56.40;;;;;;2323549;53;21015;-68
2022/03/31 11:32:51;;;;;;;14.07;8.38;;;12.70;56.40;;;;;;2323802;53;20976;-70
2022/03/31 11:35:18;;;;;;;13.45;8.27;;;12.70;56.50;;;;;;2324049;54;21095;-68
2022/03/31 11:37:55;;;;;;;13.70;8.63;;;12.70;56.60;;;;;;2324013;54;21631;-69
2022/03/31 11:40:25;;;;;;;15.93;9.40;;;12.80;56.60;;;;;;2324047;54;20940;-69
2022/03/31 11:42:52;;;;;;;12.15;8.10;;;12.80;56.50;;;;;;2324217;54;21048;-70
2022/03/31 11:45:53;;;;;;;13.27;8.07;;;12.80;56.40;;;;;;2324071;54;20935;-69
2022/03/31 11:48:34;;;;;;;12.18;7.43;;;12.80;56.80;;;;;;2324169;54;21043;-70
2022/03/31 11:51:02;;;;;;;11.93;8.02;;;12.80;56.60;;;;;;2323963;54;21928;-68
2022/03/31 11:53:41;;;;;;;10.48;6.95;;;12.80;56.60;;;;;;2324042;54;21006;-68
2022/03/31 11:56:21;;;;;;;10.65;6.55;;;12.80;56.70;;;;;;2327114;54;20928;-69
2022/03/31 11:58:52;;;;;;;9.25;5.90;;;12.80;56.70;;;;;;2354587;53;20946;-69
2022/03/31 12:01:20;;;;;;;10.48;6.53;;;12.90;56.80;;;;;;2323944;54;20936;-68
2022/03/31 12:03:47;;;;;;;11.85;6.43;;;12.90;56.70;;;;;;2324234;54;20956;-69
2022/03/31 12:06:16;;;;;;;8.90;5.90;;;12.90;56.80;;;;;;2324070;54;20952;-68
2022/03/31 12:08:43;;;;;;;8.18;5.32;;;12.90;56.90;;;;;;2409323;53;21531;-68
2022/03/31 12:11:09;;;;;;;9.32;5.28;;;12.90;56.80;;;;;;2568118;53;21003;-70
2022/03/31 12:13:52;;;;;;;9.35;6.32;;;13.00;56.80;;;;;;2323942;53;21070;-68
2022/03/31 12:16:20;;;;;;;8.02;5.47;;;13.00;56.70;;;;;;2567974;53;20960;-70
2022/03/31 12:18:57;;;;;;;8.85;5.82;;;13.00;56.40;;;;;;2359740;53;20947;-68
2022/03/31 12:21:25;;;;;;;8.27;5.62;;;13.00;56.50;;;;;;2562633;53;20916;-69
2022/03/31 12:23:51;;;;;;;9.52;6.25;;;13.00;56.40;;;;;;2324173;54;21476;-68
2022/03/31 12:26:36;;;;;;;9.50;6.22;;;13.00;56.50;;;;;;2567856;53;21520;-69
2022/03/31 12:29:13;;;;;;;8.32;5.15;;;13.00;56.30;;;;;;2330234;53;21264;-68
2022/03/31 12:31:40;;;;;;;8.88;5.43;;;13.00;56.30;;;;;;2324846;54;21008;-67
2022/03/31 12:34:10;;;;;;;9.15;4.90;;;13.00;56.50;;;;;;2324699;54;20924;-69
2022/03/31 12:36:36;;;;;;;8.82;5.30;;;13.00;56.80;;;;;;2324478;54;21035;-69
2022/03/31 12:39:04;;;;;;;7.82;5.22;;;13.00;56.80;;;;;;2324320;54;20976;-68
2022/03/31 12:41:35;;;;;;;8.55;5.43;;;13.00;56.70;;;;;;2331752;53;20988;-68